createdAt,value
2023-03-29T00:00:37.492Z,958.10
2023-03-29T00:01:37.478Z,958.15
2023-03-29T00:02:37.648Z,958.29
2023-03-29T00:03:37.488Z,958.33
2023-03-29T00:04:37.502Z,958.32
2023-03-29T00:05:37.441Z,958.33
2023-03-29T00:06:37.456Z,958.35
2023-03-29T00:07:37.526Z,958.33
2023-03-29T00:08:37.384Z,958.36
2023-03-29T00:09:37.394Z,958.25
2023-03-29T00:10:37.407Z,958.25
2023-03-29T00:11:37.376Z,958.20
2023-03-29T00:12:37.336Z,958.32
2023-03-29T00:13:37.321Z,958.30
2023-03-29T00:14:37.336Z,958.33
2023-03-29T00:15:37.309Z,958.37
2023-03-29T00:16:37.328Z,958.37
2023-03-29T00:17:37.310Z,958.29
2023-03-29T00:18:37.267Z,958.29
2023-03-29T00:19:37.283Z,958.24
2023-03-29T00:20:37.239Z,958.31
2023-03-29T00:21:37.242Z,958.40
2023-03-29T00:22:37.257Z,958.38
2023-03-29T00:23:37.246Z,958.36
2023-03-29T00:24:37.189Z,958.32
2023-03-29T00:25:37.252Z,958.29
2023-03-29T00:26:37.156Z,958.31
2023-03-29T00:27:37.175Z,958.36
2023-03-29T00:28:37.137Z,958.26
2023-03-29T00:29:37.175Z,958.24
2023-03-29T00:30:37.109Z,958.21
2023-03-29T00:31:37.164Z,958.19
2023-03-29T00:32:37.164Z,958.19
2023-03-29T00:33:37.944Z,958.19
2023-03-29T00:34:37.081Z,958.28
2023-03-29T00:35:37.054Z,958.34
2023-03-29T00:36:37.041Z,958.33
2023-03-29T00:37:37.076Z,958.37
2023-03-29T00:38:37.010Z,958.42
2023-03-29T00:39:36.997Z,958.52
2023-03-29T00:40:36.974Z,958.53
2023-03-29T00:41:36.974Z,958.57
2023-03-29T00:42:36.987Z,958.55
2023-03-29T00:43:36.965Z,958.47
2023-03-29T00:44:36.920Z,958.53
2023-03-29T00:45:36.934Z,958.53
2023-03-29T00:46:36.944Z,958.60
2023-03-29T00:47:36.991Z,958.61
2023-03-29T00:48:36.873Z,958.56
2023-03-29T00:49:36.856Z,958.47
2023-03-29T00:50:36.875Z,958.36
2023-03-29T00:51:36.850Z,958.40
2023-03-29T00:52:36.815Z,958.41
2023-03-29T00:53:36.815Z,958.56
2023-03-29T00:54:36.805Z,958.64
2023-03-29T00:55:36.813Z,958.71
2023-03-29T00:56:36.971Z,958.69
2023-03-29T00:57:36.745Z,958.68
2023-03-29T00:58:36.759Z,958.70
2023-03-29T00:59:36.736Z,958.75
2023-03-29T01:00:36.708Z,958.77
2023-03-29T01:01:36.737Z,958.76
2023-03-29T01:02:36.769Z,958.71
2023-03-29T01:03:36.796Z,958.75
2023-03-29T01:04:36.659Z,958.70
2023-03-29T01:05:36.690Z,958.74
2023-03-29T01:06:36.663Z,958.77
2023-03-29T01:07:36.651Z,958.79
2023-03-29T01:08:36.613Z,958.82
2023-03-29T01:09:36.610Z,958.91
2023-03-29T01:10:36.580Z,958.95
2023-03-29T01:11:36.564Z,958.94
2023-03-29T01:12:36.584Z,958.95
2023-03-29T01:13:36.544Z,958.95
2023-03-29T01:14:36.558Z,958.91
2023-03-29T01:15:36.513Z,958.90
2023-03-29T01:16:36.529Z,958.88
2023-03-29T01:17:36.603Z,958.84
2023-03-29T01:18:36.488Z,958.78
2023-03-29T01:19:36.471Z,958.81
2023-03-29T01:20:36.470Z,958.77
2023-03-29T01:21:36.481Z,958.85
2023-03-29T01:22:36.435Z,958.85
2023-03-29T01:23:36.407Z,958.83
2023-03-29T01:24:36.401Z,958.78
2023-03-29T01:25:36.413Z,958.76
2023-03-29T01:26:36.424Z,958.75
2023-03-29T01:27:36.370Z,958.87
2023-03-29T01:28:36.369Z,958.82
2023-03-29T01:29:36.329Z,958.94
2023-03-29T01:30:36.327Z,958.91
2023-03-29T01:31:36.340Z,958.96
2023-03-29T01:32:36.344Z,958.93
2023-03-29T01:33:36.322Z,958.87
2023-03-29T01:34:36.275Z,958.90
2023-03-29T01:35:36.284Z,958.85
2023-03-29T01:36:36.274Z,958.85
2023-03-29T01:37:36.267Z,958.91
2023-03-29T01:38:36.247Z,958.91
2023-03-29T01:39:36.200Z,958.90
2023-03-29T01:40:36.192Z,958.95
2023-03-29T01:41:36.184Z,958.89
2023-03-29T01:42:36.300Z,958.91
2023-03-29T01:43:36.153Z,958.91
2023-03-29T01:44:36.168Z,958.95
2023-03-29T01:45:36.118Z,958.94
2023-03-29T01:46:36.237Z,958.93
2023-03-29T01:47:36.143Z,958.96
2023-03-29T01:48:36.091Z,958.95
2023-03-29T01:49:36.081Z,958.95
2023-03-29T01:50:36.082Z,958.92
2023-03-29T01:51:36.046Z,958.91
2023-03-29T01:52:36.090Z,958.94
2023-03-29T01:53:36.023Z,958.94
2023-03-29T01:54:35.992Z,958.91
2023-03-29T01:55:36.037Z,958.95
2023-03-29T01:56:35.982Z,958.93
2023-03-29T01:57:35.990Z,958.88
2023-03-29T01:58:35.948Z,958.82
2023-03-29T01:59:35.933Z,958.83
2023-03-29T02:00:35.922Z,958.81
2023-03-29T02:01:35.965Z,958.83
2023-03-29T02:02:36.009Z,958.84
2023-03-29T02:03:35.986Z,958.83
2023-03-29T02:04:35.895Z,958.87
2023-03-29T02:05:35.891Z,958.83
2023-03-29T02:06:35.843Z,958.76
2023-03-29T02:07:35.855Z,958.83
2023-03-29T02:08:35.832Z,958.82
2023-03-29T02:09:35.809Z,958.83
2023-03-29T02:10:35.821Z,958.75
2023-03-29T02:11:35.797Z,958.76
2023-03-29T02:12:35.775Z,958.80
2023-03-29T02:13:35.759Z,958.73
2023-03-29T02:14:35.750Z,958.68
2023-03-29T02:15:35.769Z,958.66
2023-03-29T02:16:35.729Z,958.66
2023-03-29T02:17:35.733Z,958.61
2023-03-29T02:18:35.700Z,958.56
2023-03-29T02:19:35.682Z,958.53
2023-03-29T02:20:35.679Z,958.51
2023-03-29T02:21:35.643Z,958.59
2023-03-29T02:24:03.472Z,958.64
2023-03-29T02:24:08.824Z,958.64
2023-03-29T02:25:08.798Z,958.62
2023-03-29T02:26:08.814Z,958.51
2023-03-29T02:27:08.768Z,958.52
2023-03-29T02:28:08.762Z,958.49
2023-03-29T02:29:08.778Z,958.45
2023-03-29T02:30:08.742Z,958.40
2023-03-29T02:31:08.792Z,958.49
2023-03-29T02:32:08.720Z,958.46
2023-03-29T02:33:08.734Z,958.44
2023-03-29T02:34:08.712Z,958.41
2023-03-29T02:35:08.680Z,958.32
2023-03-29T02:36:08.683Z,958.29
2023-03-29T02:37:08.674Z,958.30
2023-03-29T02:38:08.626Z,958.32
2023-03-29T02:39:08.617Z,958.34
2023-03-29T02:40:08.606Z,958.38
2023-03-29T02:41:08.593Z,958.29
2023-03-29T02:42:08.614Z,958.20
2023-03-29T02:43:08.568Z,958.17
2023-03-29T02:44:08.542Z,958.21
2023-03-29T02:45:08.536Z,958.25
2023-03-29T02:46:08.581Z,958.37
2023-03-29T02:47:08.519Z,958.34
2023-03-29T02:48:08.571Z,958.31
2023-03-29T02:49:08.545Z,958.21
2023-03-29T02:50:08.501Z,958.14
2023-03-29T02:51:08.461Z,958.21
2023-03-29T02:52:08.477Z,958.18
2023-03-29T02:53:08.472Z,958.16
2023-03-29T02:54:08.424Z,958.17
2023-03-29T02:55:08.426Z,958.09
2023-03-29T02:56:08.411Z,958.09
2023-03-29T02:57:08.449Z,957.97
2023-03-29T02:58:08.528Z,957.94
2023-03-29T02:59:08.363Z,957.90
2023-03-29T03:00:08.350Z,957.92
2023-03-29T03:01:08.362Z,957.92
2023-03-29T03:02:08.370Z,957.93
2023-03-29T03:03:08.473Z,957.88
2023-03-29T03:04:08.328Z,957.88
2023-03-29T03:05:08.303Z,957.90
2023-03-29T03:06:08.264Z,957.90
2023-03-29T03:07:08.261Z,957.94
2023-03-29T03:08:08.262Z,957.85
2023-03-29T03:09:08.232Z,957.83
2023-03-29T03:10:08.213Z,957.80
2023-03-29T03:11:08.196Z,957.92
2023-03-29T03:12:08.183Z,957.86
2023-03-29T03:13:08.198Z,957.82
2023-03-29T03:14:08.166Z,957.76
2023-03-29T03:15:08.179Z,957.77
2023-03-29T03:16:08.254Z,957.76
2023-03-29T03:17:08.118Z,957.76
2023-03-29T03:18:08.218Z,957.72
2023-03-29T03:19:08.106Z,957.70
2023-03-29T03:20:08.071Z,957.73
2023-03-29T03:21:08.125Z,957.74
2023-03-29T03:22:08.071Z,957.74
2023-03-29T03:23:08.070Z,957.77
2023-03-29T03:24:08.047Z,957.81
2023-03-29T03:25:08.028Z,957.76
2023-03-29T03:26:07.995Z,957.77
2023-03-29T03:27:07.993Z,957.77
2023-03-29T03:28:08.012Z,957.79
2023-03-29T03:29:07.960Z,957.79
2023-03-29T03:30:07.953Z,957.79
2023-03-29T03:31:07.994Z,957.74
2023-03-29T03:32:08.033Z,957.66
2023-03-29T03:33:07.924Z,957.61
2023-03-29T03:34:07.884Z,957.52
2023-03-29T03:35:07.882Z,957.49
2023-03-29T03:36:07.955Z,957.54
2023-03-29T03:37:07.863Z,957.57
2023-03-29T03:38:07.910Z,957.56
2023-03-29T03:39:07.858Z,957.60
2023-03-29T03:40:07.817Z,957.66
2023-03-29T03:41:07.868Z,957.56
2023-03-29T03:42:08.452Z,957.54
2023-03-29T03:43:07.816Z,957.50
2023-03-29T03:44:07.801Z,957.52
2023-03-29T03:45:07.769Z,957.51
2023-03-29T03:46:07.782Z,957.52
2023-03-29T03:47:07.735Z,957.48
2023-03-29T03:48:07.778Z,957.49
2023-03-29T03:49:07.726Z,957.43
2023-03-29T03:50:07.701Z,957.46
2023-03-29T03:51:07.675Z,957.49
2023-03-29T03:52:07.668Z,957.46
2023-03-29T03:53:07.678Z,957.46
2023-03-29T03:54:07.637Z,957.45
2023-03-29T03:55:07.623Z,957.40
2023-03-29T03:56:38.239Z,957.38
2023-03-29T03:57:07.639Z,957.46
2023-03-29T03:58:07.584Z,957.50
2023-03-29T03:59:07.597Z,957.56
2023-03-29T04:00:07.549Z,957.51
2023-03-29T04:01:07.548Z,957.42
2023-03-29T04:02:07.624Z,957.39
2023-03-29T04:03:07.698Z,957.45
2023-03-29T04:04:07.604Z,957.48
2023-03-29T04:05:07.475Z,957.42
2023-03-29T04:06:07.483Z,957.42
2023-03-29T04:07:07.476Z,957.36
2023-03-29T04:08:07.456Z,957.29
2023-03-29T04:09:07.438Z,957.37
2023-03-29T04:10:07.446Z,957.33
2023-03-29T04:11:07.412Z,957.32
2023-03-29T04:12:07.435Z,957.34
2023-03-29T04:13:07.393Z,957.32
2023-03-29T04:14:07.375Z,957.33
2023-03-29T04:15:07.392Z,957.24
2023-03-29T04:16:07.424Z,957.20
2023-03-29T04:17:07.333Z,957.19
2023-03-29T04:18:07.733Z,957.28
2023-03-29T04:19:07.299Z,957.27
2023-03-29T04:20:07.289Z,957.31
2023-03-29T04:21:07.316Z,957.26
2023-03-29T04:22:07.276Z,957.34
2023-03-29T04:23:07.294Z,957.29
2023-03-29T04:24:07.251Z,957.29
2023-03-29T04:25:07.266Z,957.28
2023-03-29T04:26:07.247Z,957.39
2023-03-29T04:27:07.198Z,957.34
2023-03-29T04:28:07.194Z,957.33
2023-03-29T04:29:07.178Z,957.32
2023-03-29T04:30:07.203Z,957.30
2023-03-29T04:31:07.206Z,957.35
2023-03-29T04:32:07.141Z,957.35
2023-03-29T04:33:07.189Z,957.39
2023-03-29T04:34:07.125Z,957.41
2023-03-29T04:35:07.106Z,957.32
2023-03-29T04:36:07.170Z,957.26
2023-03-29T04:37:07.075Z,957.29
2023-03-29T04:38:07.060Z,957.18
2023-03-29T04:39:07.074Z,957.30
2023-03-29T04:40:07.031Z,957.16
2023-03-29T04:41:07.045Z,957.22
2023-03-29T04:42:07.008Z,957.30
2023-03-29T04:43:07.003Z,957.17
2023-03-29T04:44:07.067Z,957.20
2023-03-29T04:45:07.263Z,957.26
2023-03-29T04:46:06.985Z,957.26
2023-03-29T04:47:06.956Z,957.24
2023-03-29T04:48:07.011Z,957.21
2023-03-29T04:49:06.923Z,957.18
2023-03-29T04:50:06.932Z,957.10
2023-03-29T04:51:06.901Z,957.05
2023-03-29T04:52:06.884Z,957.06
2023-03-29T04:53:06.876Z,957.01
2023-03-29T04:54:06.870Z,956.97
2023-03-29T04:55:06.862Z,956.99
2023-03-29T04:56:06.853Z,957.02
2023-03-29T04:57:06.847Z,957.08
2023-03-29T04:58:06.805Z,957.14
2023-03-29T04:59:06.791Z,957.25
2023-03-29T05:00:06.805Z,957.24
2023-03-29T05:01:06.768Z,957.15
2023-03-29T05:02:06.822Z,957.15
2023-03-29T05:03:06.810Z,957.15
2023-03-29T05:04:06.804Z,957.28
2023-03-29T05:05:06.706Z,957.30
2023-03-29T05:06:06.800Z,957.16
2023-03-29T05:07:06.716Z,957.12
2023-03-29T05:08:06.672Z,957.19
2023-03-29T05:09:06.645Z,957.16
2023-03-29T05:10:06.651Z,957.05
2023-03-29T05:11:06.642Z,957.10
2023-03-29T05:12:06.624Z,957.16
2023-03-29T05:13:06.623Z,957.14
2023-03-29T05:14:06.576Z,957.09
2023-03-29T05:15:06.593Z,957.14
2023-03-29T05:16:06.597Z,957.16
2023-03-29T05:17:06.591Z,957.24
2023-03-29T05:18:06.603Z,957.27
2023-03-29T05:19:06.548Z,957.24
2023-03-29T05:20:06.508Z,957.14
2023-03-29T05:21:06.537Z,957.08
2023-03-29T05:22:06.484Z,957.06
2023-03-29T05:23:06.472Z,957.17
2023-03-29T05:24:06.459Z,957.11
2023-03-29T05:25:06.520Z,957.09
2023-03-29T05:26:06.448Z,957.07
2023-03-29T05:27:06.435Z,956.99
2023-03-29T05:28:06.395Z,957.04
2023-03-29T05:29:06.379Z,957.07
2023-03-29T05:30:06.379Z,957.15
2023-03-29T05:31:06.561Z,957.11
2023-03-29T05:32:06.420Z,957.11
2023-03-29T05:33:06.374Z,957.11
2023-03-29T05:34:06.318Z,957.17
2023-03-29T05:35:06.315Z,957.12
2023-03-29T05:36:06.349Z,957.08
2023-03-29T05:37:06.271Z,957.13
2023-03-29T05:38:06.287Z,957.15
2023-03-29T05:39:06.252Z,957.05
2023-03-29T05:40:06.490Z,957.13
2023-03-29T05:41:06.303Z,957.13
2023-03-29T05:42:06.282Z,957.16
2023-03-29T05:43:06.215Z,957.21
2023-03-29T05:44:06.197Z,957.13
2023-03-29T05:45:06.185Z,957.12
2023-03-29T05:46:06.232Z,957.30
2023-03-29T05:47:06.174Z,957.31
2023-03-29T05:48:06.178Z,957.31
2023-03-29T05:49:06.133Z,957.30
2023-03-29T05:50:06.118Z,957.31
2023-03-29T05:51:06.105Z,957.31
2023-03-29T05:52:06.106Z,957.23
2023-03-29T05:53:06.080Z,957.17
2023-03-29T05:54:06.054Z,957.21
2023-03-29T05:55:06.042Z,957.24
2023-03-29T05:56:06.024Z,957.34
2023-03-29T05:57:06.150Z,957.33
2023-03-29T05:58:06.003Z,957.38
2023-03-29T05:59:05.998Z,957.19
2023-03-29T06:00:06.012Z,957.26
2023-03-29T06:01:05.978Z,957.23
2023-03-29T06:02:05.993Z,957.26
2023-03-29T06:03:14.138Z,957.19
2023-03-29T06:04:05.983Z,957.14
2023-03-29T06:05:05.934Z,957.15
2023-03-29T06:06:05.897Z,957.16
2023-03-29T06:07:05.929Z,957.14
2023-03-29T06:08:05.921Z,957.15
2023-03-29T06:09:05.892Z,957.14
2023-03-29T06:10:05.853Z,957.06
2023-03-29T06:11:06.128Z,957.11
2023-03-29T06:12:05.834Z,957.16
2023-03-29T06:13:05.853Z,957.16
2023-03-29T06:14:05.829Z,957.17
2023-03-29T06:15:05.814Z,957.15
2023-03-29T06:16:05.782Z,957.13
2023-03-29T06:17:05.864Z,957.18
2023-03-29T06:18:05.826Z,957.20
2023-03-29T06:19:05.762Z,957.20
2023-03-29T06:20:05.716Z,957.24
2023-03-29T06:21:05.826Z,957.15
2023-03-29T06:22:05.701Z,957.07
2023-03-29T06:23:05.715Z,957.22
2023-03-29T06:24:05.709Z,957.21
2023-03-29T06:25:05.649Z,957.16
2023-03-29T06:26:05.717Z,957.24
2023-03-29T06:27:05.621Z,957.22
2023-03-29T06:28:05.619Z,957.24
2023-03-29T06:29:05.601Z,957.21
2023-03-29T06:30:05.593Z,957.20
2023-03-29T06:31:06.064Z,957.21
2023-03-29T06:32:05.577Z,957.17
2023-03-29T06:33:05.602Z,957.22
2023-03-29T06:34:05.551Z,957.24
2023-03-29T06:35:05.555Z,957.26
2023-03-29T06:36:05.522Z,957.20
2023-03-29T06:37:05.503Z,957.18
2023-03-29T06:38:05.511Z,957.27
2023-03-29T06:39:05.477Z,957.20
2023-03-29T06:40:05.477Z,957.24
2023-03-29T06:41:05.531Z,957.20
2023-03-29T06:42:16.608Z,957.19
2023-03-29T06:43:05.444Z,957.30
2023-03-29T06:44:05.416Z,957.13
2023-03-29T06:45:05.400Z,957.13
2023-03-29T06:46:05.462Z,957.17
2023-03-29T06:47:05.571Z,957.20
2023-03-29T06:48:05.379Z,957.14
2023-03-29T06:49:05.362Z,957.07
2023-03-29T06:50:05.331Z,957.17
2023-03-29T06:51:05.353Z,957.21
2023-03-29T06:52:05.333Z,957.25
2023-03-29T06:53:05.309Z,957.18
2023-03-29T06:54:05.290Z,957.13
2023-03-29T06:55:05.276Z,957.20
2023-03-29T06:56:05.369Z,957.17
2023-03-29T06:57:05.285Z,957.20
2023-03-29T06:58:05.240Z,957.18
2023-03-29T06:59:05.251Z,957.18
2023-03-29T07:00:05.208Z,957.18
2023-03-29T07:01:05.577Z,957.20
2023-03-29T07:02:05.220Z,957.14
2023-03-29T07:03:05.248Z,957.18
2023-03-29T07:04:05.206Z,957.30
2023-03-29T07:05:05.126Z,957.26
2023-03-29T07:06:05.118Z,957.24
2023-03-29T07:07:05.141Z,957.21
2023-03-29T07:08:05.093Z,957.26
2023-03-29T07:09:05.106Z,957.30
2023-03-29T07:10:05.178Z,957.29
2023-03-29T07:11:05.242Z,957.26
2023-03-29T07:12:05.051Z,957.20
2023-03-29T07:13:05.040Z,957.13
2023-03-29T07:14:05.296Z,957.18
2023-03-29T07:15:05.001Z,957.22
2023-03-29T07:16:05.066Z,957.25
2023-03-29T07:17:04.980Z,957.22
2023-03-29T07:18:05.128Z,957.15
2023-03-29T07:19:04.974Z,957.08
2023-03-29T07:20:04.966Z,957.10
2023-03-29T07:21:05.259Z,957.11
2023-03-29T07:22:04.912Z,957.13
2023-03-29T07:23:04.938Z,957.09
2023-03-29T07:24:04.887Z,957.07
2023-03-29T07:25:04.892Z,957.01
2023-03-29T07:26:04.875Z,957.07
2023-03-29T07:27:05.097Z,957.17
2023-03-29T07:28:04.863Z,957.20
2023-03-29T07:29:04.817Z,957.15
2023-03-29T07:30:04.838Z,957.17
2023-03-29T07:31:04.903Z,957.11
2023-03-29T07:33:32.637Z,957.18
2023-03-29T07:33:38.186Z,957.22
2023-03-29T07:34:38.074Z,957.16
2023-03-29T07:35:38.136Z,957.14
2023-03-29T07:36:38.074Z,957.17
2023-03-29T07:37:38.069Z,957.32
2023-03-29T07:38:38.029Z,957.35
2023-03-29T07:39:38.002Z,957.28
2023-03-29T07:40:38.002Z,957.24
2023-03-29T07:41:37.996Z,957.24
2023-03-29T07:42:37.997Z,957.29
2023-03-29T07:43:37.973Z,957.33
2023-03-29T07:44:37.949Z,957.36
2023-03-29T07:45:37.966Z,957.39
2023-03-29T07:46:37.930Z,957.31
2023-03-29T07:47:37.988Z,957.31
2023-03-29T07:48:37.898Z,957.30
2023-03-29T07:49:37.883Z,957.30
2023-03-29T07:50:37.885Z,957.28
2023-03-29T07:51:37.848Z,957.28
2023-03-29T07:52:37.862Z,957.34
2023-03-29T07:53:37.917Z,957.35
2023-03-29T07:54:37.840Z,957.30
2023-03-29T07:55:37.817Z,957.31
2023-03-29T07:56:37.885Z,957.29
2023-03-29T07:57:37.768Z,957.27
2023-03-29T07:58:37.782Z,957.33
2023-03-29T07:59:37.779Z,957.40
2023-03-29T08:00:37.802Z,957.35
2023-03-29T08:01:37.718Z,957.28
2023-03-29T08:02:37.749Z,957.27
2023-03-29T08:03:37.797Z,957.20
2023-03-29T08:04:37.825Z,957.24
2023-03-29T08:05:41.365Z,957.30
2023-03-29T08:06:37.660Z,957.32
2023-03-29T08:07:37.642Z,957.26
2023-03-29T08:08:37.640Z,957.27
2023-03-29T08:09:37.642Z,957.29
2023-03-29T08:10:37.615Z,957.38
2023-03-29T08:11:37.618Z,957.47
2023-03-29T08:12:37.620Z,957.40
2023-03-29T08:13:37.566Z,957.30
2023-03-29T08:14:37.557Z,957.37
2023-03-29T08:15:37.562Z,957.41
2023-03-29T08:16:37.593Z,957.33
2023-03-29T08:17:37.620Z,957.31
2023-03-29T08:18:37.521Z,957.30
2023-03-29T08:19:37.491Z,957.36
2023-03-29T08:20:37.467Z,957.35
2023-03-29T08:21:37.481Z,957.34
2023-03-29T08:22:37.453Z,957.43
2023-03-29T08:23:37.503Z,957.43
2023-03-29T08:24:37.425Z,957.51
2023-03-29T08:25:37.428Z,957.51
2023-03-29T08:26:37.401Z,957.49
2023-03-29T08:27:37.390Z,957.52
2023-03-29T08:28:37.373Z,957.54
2023-03-29T08:29:37.391Z,957.47
2023-03-29T08:30:37.364Z,957.48
2023-03-29T08:31:37.446Z,957.48
2023-03-29T08:32:37.351Z,957.53
2023-03-29T08:36:04.590Z,957.51
2023-03-29T08:36:09.926Z,957.50
2023-03-29T08:37:09.898Z,957.53
2023-03-29T08:38:09.880Z,957.53
2023-03-29T08:39:09.886Z,957.51
2023-03-29T08:40:09.840Z,957.52
2023-03-29T08:41:09.846Z,957.47
2023-03-29T08:42:09.854Z,957.48
2023-03-29T08:43:09.856Z,957.54
2023-03-29T08:44:09.792Z,957.62
2023-03-29T08:45:09.792Z,957.55
2023-03-29T08:46:09.784Z,957.53
2023-03-29T08:47:09.793Z,957.47
2023-03-29T08:48:09.770Z,957.48
2023-03-29T08:49:09.736Z,957.48
2023-03-29T08:50:09.739Z,957.49
2023-03-29T08:51:10.181Z,957.58
2023-03-29T08:52:09.694Z,957.53
2023-03-29T08:53:09.721Z,957.45
2023-03-29T08:54:09.680Z,957.40
2023-03-29T08:55:09.683Z,957.44
2023-03-29T08:56:09.690Z,957.45
2023-03-29T08:57:09.657Z,957.46
2023-03-29T08:58:09.618Z,957.46
2023-03-29T08:59:09.603Z,957.49
2023-03-29T09:00:09.606Z,957.55
2023-03-29T09:01:09.565Z,957.51
2023-03-29T09:02:09.591Z,957.45
2023-03-29T09:03:09.661Z,957.43
2023-03-29T09:04:09.593Z,957.38
2023-03-29T09:05:09.528Z,957.51
2023-03-29T09:06:09.549Z,957.52
2023-03-29T09:07:09.479Z,957.50
2023-03-29T09:08:40.168Z,957.46
2023-03-29T09:09:09.521Z,957.48
2023-03-29T09:10:09.444Z,957.42
2023-03-29T09:11:09.453Z,957.39
2023-03-29T09:12:09.479Z,957.41
2023-03-29T09:13:09.442Z,957.49
2023-03-29T09:14:09.432Z,957.49
2023-03-29T09:15:09.394Z,957.50
2023-03-29T09:16:09.407Z,957.50
2023-03-29T09:17:09.352Z,957.46
2023-03-29T09:18:09.469Z,957.50
2023-03-29T09:19:09.367Z,957.57
2023-03-29T09:20:09.398Z,957.64
2023-03-29T09:21:09.311Z,957.56
2023-03-29T09:22:09.309Z,957.49
2023-03-29T09:23:09.292Z,957.45
2023-03-29T09:24:09.297Z,957.48
2023-03-29T09:25:09.305Z,957.49
2023-03-29T09:26:09.249Z,957.51
2023-03-29T09:27:09.226Z,957.52
2023-03-29T09:28:09.251Z,957.53
2023-03-29T09:29:09.799Z,957.49
2023-03-29T09:30:09.204Z,957.44
2023-03-29T09:31:09.195Z,957.43
2023-03-29T09:32:09.174Z,957.46
2023-03-29T09:33:09.177Z,957.50
2023-03-29T09:34:09.151Z,957.57
2023-03-29T09:35:09.116Z,957.56
2023-03-29T09:37:36.537Z,957.57
2023-03-29T09:37:41.920Z,957.52
2023-03-29T09:38:41.877Z,957.39
2023-03-29T09:39:41.897Z,957.49
2023-03-29T09:40:41.872Z,957.59
2023-03-29T09:41:41.848Z,957.58
2023-03-29T09:42:41.818Z,957.54
2023-03-29T09:43:41.813Z,957.51
2023-03-29T09:44:41.820Z,957.52
2023-03-29T09:45:41.829Z,957.63
2023-03-29T09:46:41.774Z,957.57
2023-03-29T09:47:41.787Z,957.56
2023-03-29T09:48:41.758Z,957.57
2023-03-29T09:49:41.765Z,957.44
2023-03-29T09:50:41.720Z,957.44
2023-03-29T09:51:41.705Z,957.44
2023-03-29T09:52:41.679Z,957.52
2023-03-29T09:53:41.683Z,957.57
2023-03-29T09:54:41.739Z,957.50
2023-03-29T09:55:41.664Z,957.47
2023-03-29T09:56:41.633Z,957.48
2023-03-29T09:57:41.629Z,957.51
2023-03-29T09:58:41.610Z,957.50
2023-03-29T09:59:41.633Z,957.47
2023-03-29T10:00:41.607Z,957.43
2023-03-29T10:01:41.704Z,957.42
2023-03-29T10:02:41.581Z,957.39
2023-03-29T10:03:41.624Z,957.40
2023-03-29T10:04:41.570Z,957.32
2023-03-29T10:05:41.523Z,957.39
2023-03-29T10:06:41.539Z,957.38
2023-03-29T10:07:41.529Z,957.35
2023-03-29T10:08:41.523Z,957.38
2023-03-29T10:09:41.479Z,957.35
2023-03-29T10:10:41.468Z,957.45
2023-03-29T10:11:41.450Z,957.44
2023-03-29T10:12:41.435Z,957.36
2023-03-29T10:13:41.444Z,957.45
2023-03-29T10:14:41.405Z,957.33
2023-03-29T10:15:41.405Z,957.28
2023-03-29T10:16:41.521Z,957.30
2023-03-29T10:17:41.403Z,957.36
2023-03-29T10:18:41.358Z,957.43
2023-03-29T10:19:41.425Z,957.32
2023-03-29T10:20:41.354Z,957.27
2023-03-29T10:21:41.304Z,957.23
2023-03-29T10:22:41.304Z,957.24
2023-03-29T10:23:41.317Z,957.24
2023-03-29T10:24:41.268Z,957.28
2023-03-29T10:25:42.820Z,957.30
2023-03-29T10:26:41.276Z,957.32
2023-03-29T10:27:41.238Z,957.24
2023-03-29T10:28:41.226Z,957.16
2023-03-29T10:29:41.284Z,957.12
2023-03-29T10:30:41.195Z,957.16
2023-03-29T10:31:41.245Z,957.07
2023-03-29T10:32:41.388Z,957.11
2023-03-29T10:33:41.150Z,957.15
2023-03-29T10:34:41.154Z,957.17
2023-03-29T10:35:41.158Z,957.13
2023-03-29T10:36:41.142Z,957.05
2023-03-29T10:37:41.152Z,957.01
2023-03-29T10:38:41.105Z,957.01
2023-03-29T10:39:41.056Z,956.96
2023-03-29T10:40:41.061Z,956.93
2023-03-29T10:41:41.044Z,956.95
2023-03-29T10:42:41.065Z,956.92
2023-03-29T10:43:41.010Z,956.95
2023-03-29T10:44:41.000Z,957.01
2023-03-29T10:45:41.003Z,957.04
2023-03-29T10:46:40.993Z,957.03
2023-03-29T10:47:40.993Z,956.94
2023-03-29T10:48:40.953Z,956.94
2023-03-29T10:49:40.970Z,957.07
2023-03-29T10:50:40.915Z,957.06
2023-03-29T10:51:40.917Z,957.00
2023-03-29T10:52:40.917Z,956.93
2023-03-29T10:53:40.884Z,956.91
2023-03-29T10:54:40.871Z,956.93
2023-03-29T10:55:40.844Z,956.96
2023-03-29T10:56:40.910Z,956.92
2023-03-29T10:57:40.912Z,956.96
2023-03-29T10:58:40.848Z,956.87
2023-03-29T10:59:40.802Z,956.86
2023-03-29T11:00:40.801Z,956.80
2023-03-29T11:01:40.844Z,956.77
2023-03-29T11:02:40.812Z,956.76
2023-03-29T11:03:40.901Z,956.82
2023-03-29T11:04:40.744Z,956.79
2023-03-29T11:05:40.736Z,956.78
2023-03-29T11:06:40.695Z,956.75
2023-03-29T11:07:40.708Z,956.70
2023-03-29T11:08:40.691Z,956.67
2023-03-29T11:09:40.672Z,956.70
2023-03-29T11:10:40.692Z,956.69
2023-03-29T11:11:40.648Z,956.72
2023-03-29T11:12:40.647Z,956.71
2023-03-29T11:13:40.631Z,956.62
2023-03-29T11:14:40.604Z,956.65
2023-03-29T11:15:40.620Z,956.72
2023-03-29T11:16:40.590Z,956.74
2023-03-29T11:17:40.680Z,956.67
2023-03-29T11:18:40.577Z,956.60
2023-03-29T11:19:40.536Z,956.69
2023-03-29T11:20:40.520Z,956.69
2023-03-29T11:21:40.519Z,956.65
2023-03-29T11:22:40.493Z,956.68
2023-03-29T11:23:40.511Z,956.67
2023-03-29T11:24:40.534Z,956.62
2023-03-29T11:25:40.449Z,956.58
2023-03-29T11:26:40.477Z,956.58
2023-03-29T11:27:40.432Z,956.59
2023-03-29T11:28:40.419Z,956.62
2023-03-29T11:29:40.406Z,956.56
2023-03-29T11:30:40.406Z,956.56
2023-03-29T11:31:40.420Z,956.47
2023-03-29T11:32:40.405Z,956.57
2023-03-29T11:33:40.387Z,956.65
2023-03-29T11:34:40.344Z,956.66
2023-03-29T11:35:40.364Z,956.61
2023-03-29T11:36:40.309Z,956.57
2023-03-29T11:37:40.330Z,956.54
2023-03-29T11:38:40.757Z,956.61
2023-03-29T11:41:08.100Z,956.64
2023-03-29T11:41:13.452Z,956.48
2023-03-29T11:42:13.442Z,956.54
2023-03-29T11:43:13.415Z,956.46
2023-03-29T11:44:13.405Z,956.33
2023-03-29T11:45:13.428Z,956.33
2023-03-29T11:46:13.410Z,956.40
2023-03-29T11:47:13.358Z,956.47
2023-03-29T11:48:13.353Z,956.46
2023-03-29T11:49:13.366Z,956.49
2023-03-29T11:50:13.353Z,956.38
2023-03-29T11:51:13.324Z,956.32
2023-03-29T11:52:13.341Z,956.44
2023-03-29T11:53:13.277Z,956.40
2023-03-29T11:54:13.267Z,956.28
2023-03-29T11:55:13.283Z,956.29
2023-03-29T11:56:13.270Z,956.18
2023-03-29T11:57:13.326Z,956.21
2023-03-29T11:58:13.270Z,956.21
2023-03-29T11:59:13.209Z,956.23
2023-03-29T12:00:13.228Z,956.18
2023-03-29T12:01:13.179Z,956.23
2023-03-29T12:02:13.184Z,956.22
2023-03-29T12:03:13.319Z,956.16
2023-03-29T12:04:13.272Z,956.17
2023-03-29T12:05:13.228Z,956.10
2023-03-29T12:06:13.113Z,956.15
2023-03-29T12:07:13.096Z,956.07
2023-03-29T12:08:13.091Z,956.06
2023-03-29T12:09:16.240Z,956.06
2023-03-29T12:10:13.068Z,956.07
2023-03-29T12:11:13.026Z,956.05
2023-03-29T12:12:13.026Z,955.97
2023-03-29T12:13:13.022Z,955.99
2023-03-29T12:14:13.042Z,955.92
2023-03-29T12:15:12.987Z,955.95
2023-03-29T12:16:13.083Z,956.02
2023-03-29T12:17:12.972Z,956.08
2023-03-29T12:18:12.957Z,956.08
2023-03-29T12:19:12.968Z,956.04
2023-03-29T12:20:12.957Z,956.08
2023-03-29T12:21:12.933Z,956.06
2023-03-29T12:22:12.895Z,956.05
2023-03-29T12:23:12.870Z,956.11
2023-03-29T12:24:12.850Z,956.05
2023-03-29T12:25:12.859Z,956.10
2023-03-29T12:26:12.861Z,956.10
2023-03-29T12:27:12.832Z,956.05
2023-03-29T12:28:12.821Z,956.08
2023-03-29T12:29:12.818Z,956.11
2023-03-29T12:30:12.795Z,956.10
2023-03-29T12:31:12.802Z,956.11
2023-03-29T12:32:12.813Z,956.10